Data for 04/25/2013

Time Sea-Level Adjusted Pressure Absolute Pressure Temperature Relative Humidity Dew Point   
(mb) (inHg) (mb) (inHg) (C) (F) (%) (C) (F)
00:05 1016 30 845 24.95 7.9 46.2 25 -11 12.3
00:10 1016 30 845 24.95 7.9 46.2 26 -10.6 13
00:15 1016 30 845 24.95 7.7 45.9 26 -10.5 13.2
00:20 1016 30 845 24.95 7.5 45.4 27 -10.5 13.1
00:25 1016 30 845 24.95 7.3 45.1 28 -10.2 13.6
00:30 1016 30 845 24.95 7.1 44.7 28 -10.3 13.4
00:35 1016 30 845 24.95 7 44.6 28 -10.2 13.6
00:40 1016 30 845 24.95 6.9 44.4 28 -10.4 13.3
00:45 1016 30 845 24.95 6.9 44.4 28 -10.3 13.5
00:50 1016 30 845 24.95 7 44.5 28 -10.5 13.1
00:55 1016 30 845 24.95 7.3 45.1 26 -10.9 12.5
01:00 1016 30 845 24.95 7.6 45.6 26 -10.6 13
01:05 1016 30 845 24.95 7.5 45.6 27 -10.5 13.1
01:10 1016 30 845 24.95 7.5 45.5 27 -10.4 13.2
01:15 1015 29.97 845 24.95 7.5 45.4 27 -10.5 13.1
01:20 1015 29.97 845 24.95 7.5 45.5 26 -10.6 13
01:25 1015 29.97 845 24.95 7.5 45.5 27 -10.5 13.1
01:30 1015 29.97 845 24.95 7.5 45.4 27 -10.5 13.1
01:35 1015 29.97 845 24.95 7.4 45.2 27 -10.3 13.4
01:40 1015 29.97 845 24.95 7.2 45 28 -10.2 13.6
01:45 1015 29.97 845 24.95 7.1 44.8 28 -10.2 13.7
01:50 1015 29.97 845 24.95 7 44.6 29 -10.1 13.8
01:55 1015 29.97 844 24.92 6.8 44.3 29 -10 14.1
02:00 1015 29.97 844 24.92 6.7 44.1 29 -10.1 13.9
02:05 1015 29.97 844 24.92 6.7 44 30 -9.7 14.5
02:10 1015 29.97 844 24.92 6.5 43.7 30 -9.7 14.6
02:15 1015 29.97 844 24.92 6.4 43.5 30 -10.1 13.9
02:20 1015 29.97 844 24.92 6.5 43.8 30 -10 14
02:25 1015 29.97 844 24.92 6.6 43.9 29 -10.3 13.5
02:30 1015 29.97 844 24.92 7 44.6 28 -10.2 13.6
02:35 1015 29.97 844 24.92 7.1 44.7 29 -10 14
02:40 1015 29.97 844 24.92 7 44.5 29 -10 13.9
02:45 1015 29.97 844 24.92 7 44.6 28 -10.3 13.5
02:50 1015 29.97 844 24.92 7.2 44.9 27 -10.6 13
02:55 1015 29.97 844 24.92 7.4 45.3 27 -10.6 12.9
03:00 1015 29.97 844 24.92 7.5 45.6 25 -11.1 12
03:05 1015 29.97 844 24.92 7.7 45.8 26 -10.6 12.9
03:10 1015 29.97 844 24.92 7.6 45.6 26 -10.9 12.5
03:15 1015 29.97 844 24.92 7.7 45.8 24 -11.4 11.5
03:20 1015 29.97 844 24.92 7.9 46.3 25 -11 12.1
03:25 1015 29.97 844 24.92 7.8 46.1 24 -11.4 11.5
03:30 1015 29.97 844 24.92 7.9 46.1 25 -11.1 12
03:35 1015 29.97 844 24.92 7.8 46 25 -11.2 11.9
03:40 1015 29.97 844 24.92 7.7 45.9 25 -11 12.2
03:45 1015 29.97 844 24.92 7.6 45.7 25 -11.2 11.8
03:50 1015 29.97 844 24.92 7.7 45.8 25 -11.3 11.7
03:55 1015 29.97 844 24.92 7.7 45.8 24 -11.5 11.4
04:00 1015 29.97 844 24.92 7.8 46.1 24 -11.4 11.6
04:05 1015 29.97 844 24.92 7.8 46.1 24 -11.6 11.2
04:10 1015 29.97 844 24.92 7.9 46.3 24 -11.6 11.2
04:15 1015 29.97 844 24.92 8 46.4 24 -11.5 11.3
04:20 1015 29.97 844 24.92 7.9 46.3 24 -11.4 11.4
04:25 1015 29.97 844 24.92 7.8 46.1 24 -11.3 11.6
04:30 1015 29.97 844 24.92 7.8 46 24 -11.4 11.5
04:35 1015 29.97 844 24.92 7.7 45.8 25 -11.1 12
04:40 1015 29.97 844 24.92 7.5 45.4 26 -10.9 12.3
04:45 1015 29.97 844 24.92 7.3 45.1 26 -11.1 11.9
04:50 1015 29.97 844 24.92 7.4 45.2 25 -11.4 11.4
04:55 1015 29.97 844 24.92 7.5 45.5 24 -11.9 10.6
05:00 1015 29.97 844 24.92 7.6 45.7 24 -11.6 11.2
05:05 1014 29.94 844 24.92 7.6 45.6 25 -11.5 11.3
05:10 1014 29.94 844 24.92 7.5 45.6 24 -11.8 10.7
05:15 1015 29.97 844 24.92 7.6 45.6 24 -11.5 11.3
05:20 1015 29.97 844 24.92 7.5 45.5 24 -11.9 10.7
05:25 1015 29.97 844 24.92 7.6 45.6 23 -12.1 10.2
05:30 1015 29.97 844 24.92 7.6 45.8 24 -11.9 10.6
05:35 1015 29.97 844 24.92 7.6 45.6 24 -11.7 10.9
05:40 1015 29.97 844 24.92 7.5 45.5 24 -11.9 10.6
05:45 1015 29.97 844 24.92 7.5 45.6 24 -11.9 10.6
05:50 1015 29.97 844 24.92 7.6 45.8 23 -12 10.4
05:55 1015 29.97 844 24.92 7.7 45.9 24 -11.7 10.9
06:00 1015 29.97 844 24.92 7.7 45.8 25 -11.3 11.7
06:05 1015 29.97 844 24.92 7.6 45.7 25 -11.4 11.5
06:10 1015 29.97 844 24.92 7.8 46 23 -12.2 10
06:15 1015 29.97 844 24.92 8.2 46.8 22 -12.2 10
06:20 1015 29.97 844 24.92 8.4 47.2 21 -12.6 9.4
06:25 1015 29.97 844 24.92 8.5 47.3 22 -11.9 10.6
06:30 1015 29.97 844 24.92 8.7 47.7 23 -11.6 11.2
06:35 1015 29.97 844 24.92 9.1 48.4 22 -11.6 11
06:40 1015 29.97 844 24.92 9.5 49.1 21 -11.6 11.1
06:45 1015 29.97 844 24.92 9.9 49.8 20 -11.8 10.8
06:50 1015 29.97 844 24.92 10 50 20 -12 10.5
06:55 1015 29.97 844 24.92 10.2 50.3 20 -11.6 11.1
07:00 1015 29.97 844 24.92 10.4 50.7 18 -13.1 8.5
07:05 1015 29.97 844 24.92 10.7 51.2 17 -13.2 8.3
07:10 1015 29.97 844 24.92 11 51.7 17 -13.2 8.3
07:15 1015 29.97 844 24.92 11.1 52 18 -12.6 9.4
07:20 1015 29.97 844 24.92 11 51.8 17 -12.9 8.7
07:25 1015 29.97 844 24.92 11 51.8 17 -13.4 7.8
07:30 1015 29.97 844 24.92 11 51.9 16 -13.9 6.9
07:35 1015 29.97 844 24.92 10.9 51.7 17 -13 8.6
07:40 1015 29.97 844 24.92 11 51.9 17 -13.1 8.4
07:45 1015 29.97 844 24.92 10.9 51.6 17 -13.2 8.2
07:50 1015 29.97 844 24.92 11 51.8 17 -13.5 7.7
07:55 1015 29.97 844 24.92 11.1 51.9 16 -14.2 6.5
08:00 1015 29.97 844 24.92 11.1 51.9 17 -13.5 7.7
08:05 1015 29.97 844 24.92 11 51.8 16 -14.2 6.4
08:10 1015 29.97 844 24.92 11 51.8 15 -14.4 6.2
08:15 1015 29.97 844 24.92 11.1 52 16 -13.5 7.7
08:20 1015 29.97 844 24.92 11.2 52.1 17 -13.3 8.1
08:25 1015 29.97 844 24.92 11.2 52.2 16 -13.8 7.2
08:30 1015 29.97 844 24.92 11.2 52.1 15 -14.3 6.3
08:35 1015 29.97 844 24.92 10.8 51.5 16 -14.3 6.3
08:40 1015 29.97 844 24.92 10.9 51.7 17 -13.1 8.5
08:45 1015 29.97 844 24.92 11.4 52.4 16 -13.9 7
08:50 1015 29.97 844 24.92 11.3 52.4 15 -14.1 6.6
08:55 1015 29.97 844 24.92 11.2 52.1 15 -14.4 6.1
09:00 1015 29.97 844 24.92 11.1 51.9 15 -14.3 6.2
09:05 1015 29.97 844 24.92 11 51.8 15 -14.4 6.1
09:10 1015 29.97 844 24.92 10.9 51.6 16 -14.3 6.3
09:15 1015 29.97 844 24.92 11 51.9 16 -13.9 6.9
09:20 1015 29.97 844 24.92 11.2 52.2 16 -13.9 7
09:25 1015 29.97 844 24.92 11.5 52.7 16 -13.9 7
09:30 1015 29.97 844 24.92 11.8 53.3 15 -13.9 7
09:35 1015 29.97 844 24.92 12 53.6 15 -13.8 7.1
09:40 1015 29.97 844 24.92 12.3 54.2 15 -13.6 7.6
09:45 1015 29.97 844 24.92 12.7 54.8 15 -13.3 8.1
09:50 1015 29.97 844 24.92 12.7 54.9 15 -13.4 7.9
09:55 1015 29.97 844 24.92 12.8 55 15 -13.1 8.5
10:00 1015 29.97 844 24.92 12.7 54.8 15 -13.1 8.4
10:05 1015 29.97 844 24.92 12.8 55.1 15 -12.8 8.9
10:10 1015 29.97 844 24.92 12.4 54.2 16 -13.1 8.4
10:15 1015 29.97 844 24.92 12.7 54.9 15 -13 8.7
10:20 1015 29.97 844 24.92 13.2 55.7 15 -12.9 8.7
10:25 1015 29.97 844 24.92 12.8 55 15 -12.9 8.7
10:30 1015 29.97 844 24.92 12.6 54.6 16 -12.4 9.8
10:35 1015 29.97 844 24.92 13.3 55.9 16 -12 10.3
10:40 1015 29.97 844 24.92 13.6 56.4 15 -12.3 9.8
10:45 1015 29.97 844 24.92 13.9 57.1 15 -12.4 9.7
10:50 1015 29.97 844 24.92 13.8 56.9 15 -12.2 10
10:55 1015 29.97 844 24.92 13.4 56.2 15 -12.8 9
11:00 1015 29.97 844 24.92 13.9 57 15 -12.2 10
11:05 1015 29.97 844 24.92 13.4 56 15 -12.7 9.2
11:10 1015 29.97 844 24.92 13.4 56.1 15 -12.7 9.1
11:15 1015 29.97 844 24.92 13.6 56.6 15 -12.5 9.5
11:20 1015 29.97 844 24.92 14.4 57.9 14 -12.8 9
11:25 1015 29.97 844 24.92 14.5 58.2 15 -11.8 10.8
11:30 1015 29.97 844 24.92 15.2 59.4 15 -11.6 11.1
11:35 1015 29.97 844 24.92 14.9 58.8 15 -11.7 11
11:40 1014 29.94 844 24.92 15 59 15 -11.8 10.7
11:45 1014 29.94 843 24.89 14.9 58.8 14 -12.2 10
11:50 1014 29.94 843 24.89 14.6 58.4 14 -12.5 9.5
11:55 1014 29.94 843 24.89 15 58.9 14 -12.1 10.2
12:00 1014 29.94 843 24.89 14.7 58.5 15 -11.7 10.9
12:05 1014 29.94 843 24.89 14.7 58.5 14 -12.3 9.9
12:10 1014 29.94 843 24.89 14.2 57.6 15 -12.4 9.7
12:15 1014 29.94 843 24.89 14.5 58 14 -12.4 9.7
12:20 1014 29.94 843 24.89 14.8 58.6 14 -12.3 9.8
12:25 1014 29.94 843 24.89 15.4 59.8 14 -12.4 9.8
12:30 1014 29.94 843 24.89 15.8 60.5 14 -11.8 10.7
12:35 1014 29.94 843 24.89 15.6 60.2 14 -11.8 10.8
12:40 1014 29.94 843 24.89 15.1 59.3 14 -12.2 10.1
12:45 1014 29.94 843 24.89 15.1 59.3 14 -11.8 10.7
12:50 1014 29.94 843 24.89 15.1 59.1 14 -12 10.4
12:55 1014 29.94 843 24.89 15.2 59.4 14 -12.1 10.3
13:00 1014 29.94 843 24.89 16.1 60.9 14 -11.3 11.7
13:05 1014 29.94 843 24.89 16.3 61.3 13 -11.8 10.8
13:10 1014 29.94 843 24.89 16.5 61.7 14 -11.5 11.2
13:15 1014 29.94 843 24.89 16.4 61.6 13 -11.8 10.8
13:20 1014 29.94 843 24.89 16.4 61.6 14 -10.9 12.4
13:25 1014 29.94 843 24.89 16 60.8 14 -11.5 11.4
13:30 1014 29.94 843 24.89 16 60.8 15 -11 12.2
13:35 1014 29.94 843 24.89 16.3 61.4 14 -11.5 11.3
13:40 1014 29.94 843 24.89 15.8 60.4 14 -11.4 11.5
13:45 1014 29.94 843 24.89 15.3 59.5 14 -11.9 10.6
13:50 1014 29.94 843 24.89 16 60.8 14 -11.2 11.8
13:55 1014 29.94 843 24.89 16.3 61.3 14 -11.5 11.4
14:00 1014 29.94 843 24.89 16.1 61 14 -11.1 12.1
14:05 1014 29.94 843 24.89 16.6 61.8 13 -11.5 11.3
14:10 1014 29.94 843 24.89 16.6 61.9 14 -11 12.2
14:15 1014 29.94 843 24.89 17 62.6 14 -11.1 12
14:20 1013 29.91 843 24.89 17.1 62.7 14 -10.9 12.4
14:25 1013 29.91 843 24.89 17.2 63 14 -10.8 12.5
14:30 1013 29.91 843 24.89 17.3 63.1 14 -10.8 12.5
14:35 1013 29.91 843 24.89 17.1 62.7 13 -11.2 11.9
14:40 1013 29.91 843 24.89 17.4 63.3 13 -11.1 12
14:45 1013 29.91 843 24.89 17.6 63.7 13 -11.1 12.1
14:50 1013 29.91 843 24.89 17.2 63 13 -11.5 11.4
14:55 1013 29.91 843 24.89 17.4 63.3 14 -10.7 12.8
15:00 1013 29.91 843 24.89 17.6 63.6 13 -10.8 12.5
15:05 1013 29.91 843 24.89 17.6 63.6 13 -11.2 11.9
15:10 1013 29.91 843 24.89 17.6 63.6 13 -10.8 12.5
15:15 1013 29.91 843 24.89 16.9 62.4 14 -10.7 12.7
15:20 1013 29.91 843 24.89 16.8 62.3 14 -11.1 12.1
15:25 1013 29.91 842 24.86 17 62.5 14 -10.6 12.9
15:30 1013 29.91 842 24.86 17 62.6 14 -10.9 12.4
15:35 1013 29.91 842 24.86 16.8 62.3 14 -10.7 12.7
15:40 1013 29.91 843 24.89 16.7 62 14 -10.9 12.3
15:45 1013 29.91 842 24.86 17.1 62.7 14 -10.6 12.9
15:50 1013 29.91 842 24.86 16.8 62.2 14 -10.6 12.9
15:55 1013 29.91 843 24.89 17.2 62.9 14 -10.7 12.8
16:00 1013 29.91 842 24.86 17.2 62.9 14 -10.5 13.1
16:05 1013 29.91 842 24.86 17.3 63.1 14 -10.6 12.8
16:10 1013 29.91 842 24.86 17.2 63 14 -10.7 12.7
16:15 1013 29.91 842 24.86 17.4 63.3 14 -10.5 13.1
16:20 1013 29.91 843 24.89 16.8 62.3 14 -10.9 12.3
16:25 1013 29.91 843 24.89 16.8 62.2 14 -10.8 12.5
16:30 1013 29.91 843 24.89 17.4 63.3 14 -10.8 12.6
16:35 1013 29.91 843 24.89 17.4 63.3 14 -10.6 12.9
16:40 1013 29.91 843 24.89 17 62.6 14 -10.3 13.5
16:45 1013 29.91 843 24.89 17 62.6 14 -10.2 13.6
16:50 1013 29.91 843 24.89 17.5 63.4 14 -10.5 13.1
16:55 1013 29.91 843 24.89 17.4 63.4 15 -9.8 14.4
17:00 1013 29.91 843 24.89 17 62.6 15 -9.9 14.2
17:05 1014 29.94 843 24.89 17.3 63.1 14 -10.9 12.4
17:10 1014 29.94 843 24.89 17.4 63.3 14 -10.6 13
17:15 1014 29.94 843 24.89 16.9 62.5 14 -10.5 13.1
17:20 1014 29.94 843 24.89 16.4 61.6 15 -10.7 12.8
17:25 1014 29.94 843 24.89 16.4 61.6 15 -10.6 12.9
17:30 1014 29.94 843 24.89 16.8 62.2 15 -10.1 13.9
17:35 1014 29.94 843 24.89 16.3 61.3 15 -10.2 13.6
17:40 1014 29.94 843 24.89 16.3 61.3 15 -10.3 13.5
17:45 1014 29.94 843 24.89 16.4 61.6 15 -10.4 13.3
17:50 1014 29.94 843 24.89 16.5 61.6 15 -10.4 13.2
17:55 1014 29.94 843 24.89 16.4 61.5 15 -10.2 13.7
18:00 1014 29.94 843 24.89 16.3 61.3 15 -10.2 13.7
18:05 1014 29.94 843 24.89 16.2 61.2 15 -10 14
18:10 1014 29.94 843 24.89 16.1 60.9 16 -10.1 13.8
18:15 1014 29.94 843 24.89 15.9 60.7 16 -10.2 13.6
18:20 1014 29.94 843 24.89 15.8 60.5 16 -9.9 14.2
18:25 1014 29.94 844 24.92 15.8 60.4 16 -9.8 14.4
18:30 1014 29.94 844 24.92 15.6 60.1 17 -9 15.9
18:35 1014 29.94 844 24.92 15.5 60 17 -9.3 15.2
18:40 1014 29.94 844 24.92 15.5 59.8 17 -9.2 15.5
18:45 1014 29.94 844 24.92 15.3 59.5 17 -9.3 15.2
18:50 1015 29.97 844 24.92 15.2 59.4 18 -8.7 16.4
18:55 1015 29.97 844 24.92 15.1 59.2 18 -9.3 15.2
19:00 1015 29.97 844 24.92 14.9 58.9 18 -8.8 16.1
19:05 1015 29.97 844 24.92 14.7 58.5 18 -9.1 15.7
19:10 1015 29.97 844 24.92 14.5 58.1 19 -9 15.8
19:15 1015 29.97 844 24.92 14.3 57.8 19 -9 15.7
19:20 1015 29.97 844 24.92 14.1 57.4 19 -9.2 15.5
19:25 1015 29.97 844 24.92 13.9 57 19 -9 15.8
19:30 1015 29.97 844 24.92 13.7 56.6 20 -9 15.8
19:35 1015 29.97 844 24.92 13.5 56.2 20 -8.9 15.9
19:40 1015 29.97 845 24.95 13.2 55.8 21 -8.8 16.1
19:45 1015 29.97 845 24.95 13.1 55.5 21 -8.8 16.1
19:50 1016 30 845 24.95 12.9 55.1 21 -8.9 16
19:55 1016 30 845 24.95 12.8 55.1 21 -8.7 16.3
20:00 1016 30 845 24.95 12.7 54.9 21 -8.7 16.3
20:05 1016 30 845 24.95 12.6 54.6 22 -8.7 16.3
20:10 1016 30 845 24.95 12.3 54.2 23 -8.5 16.8
20:15 1016 30 845 24.95 12 53.7 23 -8.4 16.9
20:20 1016 30 846 24.98 11.9 53.4 24 -8.2 17.2
20:25 1017 30.03 846 24.98 11.8 53.2 24 -8.2 17.2
20:30 1017 30.03 846 24.98 11.6 52.9 24 -8.3 17.1
20:35 1017 30.03 846 24.98 11.4 52.5 25 -8 17.7
20:40 1017 30.03 846 24.98 11.1 52.1 25 -7.9 17.7
20:45 1017 30.03 846 24.98 9.9 49.8 28 -7.7 18.2
20:50 1017 30.03 847 25.01 9 48.3 28 -8.3 17
20:55 1017 30.03 847 25.01 9.3 48.8 28 -8.3 17
21:00 1018 30.06 847 25.01 9.5 49.2 27 -8.4 16.8
21:05 1018 30.06 847 25.01 9.7 49.5 27 -8.3 17
21:10 1018 30.06 847 25.01 9.8 49.6 28 -8 17.6
21:15 1018 30.06 847 25.01 9.7 49.4 27 -8.6 16.5
21:20 1018 30.06 847 25.01 9.9 49.7 27 -8.3 17.1
21:25 1018 30.06 847 25.01 9.6 49.2 28 -8 17.6
21:30 1018 30.06 847 25.01 9.4 49 28 -8.3 17.1
21:35 1018 30.06 847 25.01 9.3 48.7 29 -7.9 17.7
21:40 1018 30.06 848 25.04 9 48.1 30 -7.8 17.9
21:45 1018 30.06 848 25.04 8.6 47.5 30 -7.9 17.8
21:50 1019 30.09 848 25.04 8.4 47.1 31 -7.9 17.7
21:55 1019 30.09 848 25.04 8.4 47.2 31 -7.8 17.9
22:00 1019 30.09 848 25.04 8.3 47 31 -8 17.6
22:05 1019 30.09 848 25.04 8 46.4 33 -7.4 18.6
22:10 1019 30.09 848 25.04 7.4 45.3 33 -7.7 18.1
22:15 1019 30.09 848 25.04 7.6 45.7 32 -7.9 17.7
22:20 1019 30.09 848 25.04 8 46.3 32 -7.7 18.2
22:25 1019 30.09 848 25.04 8.1 46.5 32 -7.6 18.3
22:30 1019 30.09 848 25.04 8 46.4 33 -7.4 18.6
22:35 1019 30.09 848 25.04 7.9 46.1 33 -7.4 18.6
22:40 1019 30.09 848 25.04 7.5 45.5 33 -7.6 18.3
22:45 1019 30.09 848 25.04 7.7 45.9 33 -7.5 18.4
22:50 1019 30.09 848 25.04 7.6 45.6 34 -7.5 18.5
22:55 1019 30.09 848 25.04 7.9 46.2 32 -7.9 17.9
23:00 1019 30.09 848 25.04 7.8 46 33 -7.4 18.7
23:05 1019 30.09 849 25.07 7.4 45.4 36 -6.7 19.9
23:10 1019 30.09 849 25.07 6.6 43.9 38 -6.8 19.8
23:15 1019 30.09 849 25.07 6.4 43.6 38 -6.8 19.8
23:20 1019 30.09 849 25.07 6.4 43.5 38 -6.9 19.7
23:25 1019 30.09 849 25.07 6.7 44 38 -6.7 19.9
23:30 1019 30.09 849 25.07 6.6 43.8 38 -6.8 19.8
23:35 1019 30.09 849 25.07 6.7 44 38 -6.5 20.3
23:40 1020 30.12 849 25.07 6.5 43.7 39 -6.5 20.3
23:45 1020 30.12 849 25.07 6.4 43.6 39 -6.5 20.3
23:50 1020 30.12 849 25.07 6.6 43.8 38 -6.8 19.7
23:55 1020 30.12 849 25.07 7.1 44.7 36 -7.1 19.2
24:00 1020 30.12 849 25.07 7.6 45.6 35 -7.1 19.2